Time;durP1;ratioP1;P1;durP2;ratioP2;P2;SDS_P1;SDS_P2;PMS_P1;PMS_P2;Temp;Humidity;BMP_temperature;BMP_pressure;BME280_temperature;BME280_humidity;BME280_pressure;Samples;Min_cycle;Max_cycle;Signal;HPM_P1;HPM_P2
2021/03/31 18:24:12;;;;;;;9.70;8.37;;;20.10;99.90;;;;;;2642364;23;20466;-45
2021/03/31 18:26:38;;;;;;;10.53;7.40;;;19.90;99.90;;;;;;5020397;28;20463;-44
2021/03/31 18:29:10;;;;;;;10.23;8.23;;;19.80;99.90;;;;;;5020885;28;20467;-53
2021/03/31 18:31:37;;;;;;;11.63;9.53;;;19.80;99.90;;;;;;5020826;28;20583;-44
2021/03/31 18:34:03;;;;;;;15.93;10.40;;;19.60;99.90;;;;;;5014173;28;20438;-45
2021/03/31 18:36:33;;;;;;;12.73;11.13;;;19.40;99.90;;;;;;5021755;28;20510;-51
2021/03/31 18:39:03;;;;;;;8.80;7.80;;;19.30;99.90;;;;;;5021558;28;20464;-48
2021/03/31 18:41:31;;;;;;;10.70;7.40;;;19.20;99.90;;;;;;5016044;28;20460;-47
2021/03/31 18:43:59;;;;;;;9.37;8.37;;;19.10;99.90;;;;;;5011231;28;20472;-44
2021/03/31 18:46:25;;;;;;;10.17;8.47;;;18.90;99.90;;;;;;5013853;28;20483;-45
2021/03/31 18:48:55;;;;;;;11.77;9.20;;;18.80;99.90;;;;;;5007873;28;20431;-44
2021/03/31 18:51:22;;;;;;;10.53;8.33;;;18.60;99.90;;;;;;5008708;28;20951;-44
2021/03/31 18:53:48;;;;;;;16.03;8.40;;;18.50;99.90;;;;;;5006246;28;20495;-44
2021/03/31 18:56:19;;;;;;;12.20;8.20;;;18.40;99.90;;;;;;5007395;28;20497;-45
2021/03/31 18:58:45;;;;;;;12.00;8.17;;;18.20;99.90;;;;;;4997801;28;20852;-44
2021/03/31 19:01:16;;;;;;;10.13;8.30;;;18.20;99.90;;;;;;5006294;28;20460;-45
2021/03/31 19:03:45;;;;;;;12.70;8.10;;;18.10;99.90;;;;;;5014887;28;20464;-44
2021/03/31 19:06:15;;;;;;;13.97;9.60;;;18.00;99.90;;;;;;5008474;28;20689;-45
2021/03/31 19:11:01;;;;;;;12.33;9.17;;;17.90;99.90;;;;;;5015915;28;20482;-45
2021/03/31 19:11:31;;;;;;;10.80;9.70;;;17.80;99.90;;;;;;5019632;28;20955;-46
2021/03/31 19:14:02;;;;;;;16.90;9.97;;;17.60;99.90;;;;;;5020291;28;20471;-44
2021/03/31 19:16:30;;;;;;;14.07;9.90;;;17.40;99.90;;;;;;5017395;28;20546;-44
2021/03/31 19:18:57;;;;;;;14.00;9.90;;;17.40;99.90;;;;;;5017917;28;20907;-45
2021/03/31 19:21:25;;;;;;;16.53;9.90;;;17.30;99.90;;;;;;5015897;28;20474;-45
2021/03/31 19:23:52;;;;;;;12.60;9.57;;;17.30;99.90;;;;;;5013676;28;20493;-45
2021/03/31 19:26:19;;;;;;;16.43;11.00;;;17.20;99.90;;;;;;5012908;28;20507;-44
2021/03/31 19:28:49;;;;;;;10.67;9.10;;;17.20;99.90;;;;;;5018264;28;20463;-44
2021/03/31 19:31:18;;;;;;;11.60;8.50;;;17.10;99.90;;;;;;5022233;28;20492;-45
2021/03/31 19:33:47;;;;;;;10.10;9.07;;;17.00;99.90;;;;;;5024345;28;20555;-44
2021/03/31 19:36:16;;;;;;;14.07;10.93;;;16.90;99.90;;;;;;5026510;28;20468;-43
2021/03/31 19:38:44;;;;;;;17.03;11.30;;;16.80;99.90;;;;;;5021255;28;20471;-45
2021/03/31 19:41:11;;;;;;;12.83;9.00;;;16.70;99.90;;;;;;5025159;28;20493;-44
2021/03/31 19:43:46;;;;;;;11.03;9.63;;;16.60;99.90;;;;;;5023528;28;20460;-44
2021/03/31 19:46:14;;;;;;;10.83;7.93;;;16.50;99.90;;;;;;5026961;28;20464;-44
2021/03/31 19:48:41;;;;;;;8.30;7.30;;;16.40;99.90;;;;;;5022180;28;20499;-44
2021/03/31 19:51:10;;;;;;;11.27;6.30;;;16.30;99.90;;;;;;5021026;28;20492;-44
2021/03/31 19:53:39;;;;;;;8.87;6.97;;;16.10;99.90;;;;;;5022633;28;20576;-44
2021/03/31 19:56:09;;;;;;;7.73;6.20;;;16.00;99.90;;;;;;5019829;28;20468;-44
2021/03/31 19:58:40;;;;;;;9.50;6.70;;;16.00;99.90;;;;;;5018778;28;20468;-45
2021/03/31 20:01:07;;;;;;;9.73;6.53;;;15.90;99.90;;;;;;5019447;28;20467;-45
2021/03/31 20:03:34;;;;;;;6.90;6.17;;;15.80;99.90;;;;;;5011037;28;20487;-45
2021/03/31 20:06:01;;;;;;;8.73;6.57;;;15.80;99.90;;;;;;5011033;28;20476;-44
2021/03/31 20:08:28;;;;;;;10.73;6.20;;;15.80;99.90;;;;;;5017316;28;20464;-45
2021/03/31 20:10:55;;;;;;;13.80;7.43;;;15.70;99.90;;;;;;5016009;28;21027;-49
2021/03/31 20:13:26;;;;;;;9.63;7.47;;;15.50;99.90;;;;;;5019700;28;20764;-44
2021/03/31 20:15:53;;;;;;;9.77;8.00;;;15.40;99.90;;;;;;5018523;28;20922;-44
2021/03/31 20:18:21;;;;;;;13.90;7.30;;;15.30;99.90;;;;;;5019243;28;20475;-50
2021/03/31 20:20:48;;;;;;;10.63;6.90;;;15.20;99.90;;;;;;5018677;28;20460;-44
2021/03/31 20:23:15;;;;;;;15.30;7.10;;;15.20;99.90;;;;;;5009291;28;20772;-44
2021/03/31 20:25:47;;;;;;;9.87;6.03;;;15.10;99.90;;;;;;5018703;28;20488;-45
2021/03/31 20:28:14;;;;;;;9.67;6.97;;;15.10;99.90;;;;;;5024811;28;20780;-44
2021/03/31 20:30:44;;;;;;;8.40;6.60;;;15.00;99.90;;;;;;5017241;28;20546;-44
2021/03/31 20:33:22;;;;;;;8.20;7.00;;;14.90;99.90;;;;;;5009433;28;20461;-46
2021/03/31 20:35:50;;;;;;;14.33;8.00;;;14.80;99.90;;;;;;5019526;28;20464;-47
2021/03/31 20:38:16;;;;;;;9.47;7.90;;;14.80;99.90;;;;;;5019644;28;20464;-44
2021/03/31 20:40:44;;;;;;;7.83;7.03;;;14.70;99.90;;;;;;5020084;28;20464;-44
2021/03/31 20:43:14;;;;;;;14.20;8.90;;;14.60;99.90;;;;;;5020990;28;20569;-44
2021/03/31 20:45:44;;;;;;;8.30;7.50;;;14.50;99.90;;;;;;5022361;28;20464;-44
2021/03/31 20:48:12;;;;;;;11.70;9.00;;;14.40;99.90;;;;;;5019158;28;20460;-45
2021/03/31 20:50:43;;;;;;;11.70;8.50;;;14.40;99.90;;;;;;5025482;28;20471;-44
2021/03/31 20:53:20;;;;;;;12.07;8.60;;;14.20;99.90;;;;;;5026979;28;20435;-44
2021/03/31 20:55:47;;;;;;;13.30;9.00;;;14.10;99.90;;;;;;5022890;28;20542;-44
2021/03/31 20:58:16;;;;;;;10.33;8.50;;;14.10;99.90;;;;;;5024925;28;20924;-44
2021/03/31 21:00:42;;;;;;;10.80;8.97;;;14.10;99.90;;;;;;5017826;28;20844;-44
2021/03/31 21:03:09;;;;;;;15.87;8.70;;;14.00;99.90;;;;;;5009099;28;20469;-45
2021/03/31 21:05:37;;;;;;;8.13;7.33;;;14.00;99.90;;;;;;5013506;28;20519;-44
2021/03/31 21:08:05;;;;;;;9.80;7.13;;;14.00;99.90;;;;;;5006068;28;20848;-45
2021/03/31 21:10:35;;;;;;;15.93;7.33;;;13.90;99.90;;;;;;5025214;28;20427;-45
2021/03/31 21:13:02;;;;;;;8.87;7.20;;;13.90;99.90;;;;;;5020177;28;20468;-43
2021/03/31 21:15:29;;;;;;;9.47;7.00;;;13.80;99.90;;;;;;5009734;28;20555;-42
2021/03/31 21:17:56;;;;;;;9.27;6.97;;;13.70;99.90;;;;;;5017226;28;20464;-43
2021/03/31 21:20:22;;;;;;;9.30;7.50;;;13.60;99.90;;;;;;5016861;28;20997;-43
2021/03/31 21:22:49;;;;;;;10.93;7.07;;;13.50;99.90;;;;;;5002363;28;20475;-43
2021/03/31 21:25:15;;;;;;;10.53;6.77;;;13.50;99.90;;;;;;5010746;28;20594;-44
2021/03/31 21:27:43;;;;;;;10.90;6.33;;;13.40;99.90;;;;;;5020693;28;20463;-47
2021/03/31 21:30:15;;;;;;;16.13;7.50;;;13.30;99.90;;;;;;5025235;28;20460;-43
2021/03/31 21:32:41;;;;;;;8.37;6.43;;;13.30;99.90;;;;;;5023478;28;20579;-43
2021/03/31 21:35:09;;;;;;;6.87;5.90;;;13.20;99.90;;;;;;5021827;28;20819;-43
2021/03/31 21:37:35;;;;;;;9.10;5.97;;;13.30;99.90;;;;;;5017572;28;20464;-45
2021/03/31 21:40:02;;;;;;;8.93;6.80;;;13.30;99.90;;;;;;5004928;28;20464;-43
2021/03/31 21:42:29;;;;;;;10.30;7.40;;;13.20;99.90;;;;;;5006640;28;20876;-43
2021/03/31 21:44:56;;;;;;;9.07;6.50;;;13.20;99.90;;;;;;5021168;28;20482;-44
2021/03/31 21:47:25;;;;;;;10.93;7.17;;;13.10;99.90;;;;;;5016903;28;20475;-44
2021/03/31 21:49:52;;;;;;;13.30;7.63;;;13.00;99.90;;;;;;5019285;28;20587;-44
2021/03/31 21:52:18;;;;;;;11.90;7.40;;;12.90;99.90;;;;;;5023322;28;20471;-43
2021/03/31 21:54:47;;;;;;;9.53;7.10;;;12.80;99.90;;;;;;5025661;28;20474;-43
2021/03/31 21:57:16;;;;;;;15.40;8.60;;;12.60;99.90;;;;;;5027597;28;20466;-46
2021/03/31 21:59:48;;;;;;;9.80;8.43;;;12.60;1.00;;;;;;5025347;28;20463;-44
2021/03/31 22:02:15;;;;;;;9.50;7.10;;;12.50;1.00;;;;;;5023795;28;20555;-44
2021/03/31 22:04:41;;;;;;;10.83;7.73;;;12.50;1.00;;;;;;5005248;28;20482;-44
2021/03/31 22:07:08;;;;;;;13.23;6.73;;;12.50;1.00;;;;;;5015915;28;20522;-45
2021/03/31 22:09:35;;;;;;;10.00;7.60;;;12.50;1.00;;;;;;5016973;28;20456;-50
2021/03/31 22:12:01;;;;;;;9.20;7.63;;;12.40;1.00;;;;;;5017173;28;20460;-45
2021/03/31 22:14:30;;;;;;;8.43;6.60;;;12.30;1.00;;;;;;5016474;28;20960;-44
2021/03/31 22:16:56;;;;;;;9.23;7.67;;;12.30;1.00;;;;;;5016522;28;20522;-48
2021/03/31 22:19:26;;;;;;;8.57;6.70;;;12.30;1.00;;;;;;5016490;28;20467;-44
2021/03/31 22:21:54;;;;;;;9.37;7.40;;;12.20;1.00;;;;;;5017368;28;20527;-44
2021/03/31 22:24:21;;;;;;;9.23;7.80;;;12.20;1.00;;;;;;5016298;28;21021;-45
2021/03/31 22:26:47;;;;;;;14.90;8.83;;;12.10;1.00;;;;;;5017479;28;20918;-43
2021/03/31 22:29:14;;;;;;;11.97;7.47;;;12.00;1.00;;;;;;5016795;28;20439;-44
2021/03/31 22:31:43;;;;;;;10.27;7.27;;;11.90;1.00;;;;;;5017393;28;20463;-43
2021/03/31 22:34:09;;;;;;;7.97;7.23;;;11.90;1.00;;;;;;5016558;28;20518;-44
2021/03/31 22:36:37;;;;;;;10.50;7.57;;;11.90;1.00;;;;;;5017312;28;20464;-44
2021/03/31 22:39:04;;;;;;;9.50;7.60;;;11.90;1.00;;;;;;5015968;28;20467;-44
2021/03/31 22:41:31;;;;;;;9.33;7.07;;;11.80;1.00;;;;;;5016746;28;20502;-44
2021/03/31 22:43:58;;;;;;;9.73;7.97;;;11.70;1.00;;;;;;5020589;28;20773;-44
2021/03/31 22:46:25;;;;;;;11.13;7.67;;;11.70;1.00;;;;;;5019798;28;20467;-46
2021/03/31 22:48:52;;;;;;;8.67;7.47;;;11.70;1.00;;;;;;5020573;28;20470;-44
2021/03/31 22:51:20;;;;;;;9.60;7.70;;;11.60;1.00;;;;;;5020154;28;20807;-44
2021/03/31 22:53:54;;;;;;;14.17;7.13;;;11.60;1.00;;;;;;5017503;28;20460;-44
2021/03/31 22:56:22;;;;;;;15.80;7.73;;;11.60;1.00;;;;;;5018825;28;20459;-45
2021/03/31 22:58:50;;;;;;;9.37;8.00;;;11.60;1.00;;;;;;5020042;28;20753;-44
2021/03/31 23:01:25;;;;;;;11.83;7.43;;;11.60;1.00;;;;;;5018526;28;20499;-45
2021/03/31 23:03:53;;;;;;;15.03;8.40;;;11.50;1.00;;;;;;5011248;28;20565;-50
2021/03/31 23:06:21;;;;;;;10.20;8.10;;;11.50;1.00;;;;;;5014826;28;20464;-47
2021/03/31 23:08:48;;;;;;;9.40;7.23;;;11.50;1.00;;;;;;5018719;28;20526;-43
2021/03/31 23:11:15;;;;;;;12.47;10.73;;;11.30;1.00;;;;;;5018222;28;20507;-44
2021/03/31 23:13:41;;;;;;;14.53;9.03;;;11.30;1.00;;;;;;5017352;28;20889;-44
2021/03/31 23:16:08;;;;;;;14.87;7.00;;;11.20;1.00;;;;;;5018057;28;20833;-44
2021/03/31 23:18:35;;;;;;;9.13;7.47;;;11.20;1.00;;;;;;5018501;28;20470;-49
2021/03/31 23:21:02;;;;;;;12.97;8.97;;;11.10;1.00;;;;;;5017782;28;20770;-44
2021/03/31 23:23:30;;;;;;;10.87;7.73;;;11.00;1.00;;;;;;5017786;28;20927;-48
2021/03/31 23:25:58;;;;;;;10.30;8.00;;;10.90;1.00;;;;;;5015184;28;20522;-44
2021/03/31 23:28:25;;;;;;;9.40;7.60;;;10.90;1.00;;;;;;5018884;28;20499;-45
2021/03/31 23:30:52;;;;;;;9.60;7.87;;;11.00;1.00;;;;;;5018557;28;20448;-45
2021/03/31 23:33:19;;;;;;;9.57;7.40;;;10.90;1.00;;;;;;5017380;28;20935;-46
2021/03/31 23:35:48;;;;;;;11.17;6.77;;;10.90;1.00;;;;;;5018327;28;20464;-44
2021/03/31 23:38:14;;;;;;;12.03;8.03;;;10.90;1.00;;;;;;5017846;28;20916;-44
2021/03/31 23:40:41;;;;;;;9.50;7.60;;;10.90;1.00;;;;;;5017321;28;20496;-44
2021/03/31 23:43:11;;;;;;;16.27;8.37;;;10.90;1.00;;;;;;5018212;28;20475;-44
2021/03/31 23:45:39;;;;;;;12.53;8.43;;;10.90;1.00;;;;;;5019428;28;20475;-44
2021/03/31 23:48:07;;;;;;;11.33;8.27;;;10.80;1.00;;;;;;5018306;28;20468;-45
2021/03/31 23:50:36;;;;;;;10.50;9.30;;;10.80;1.00;;;;;;5018239;28;20472;-45
2021/03/31 23:53:02;;;;;;;10.20;7.30;;;10.80;1.00;;;;;;5016417;28;20510;-44
2021/03/31 23:55:31;;;;;;;10.83;8.33;;;10.70;1.00;;;;;;5018776;28;20519;-46
2021/03/31 23:57:58;;;;;;;9.33;8.37;;;10.70;1.00;;;;;;5019480;28;20567;-44
